sensor_id;sensor_type;location;lat;lon;timestamp;temperature;humidity
68128;SHT30;54931;52.098;21.006;2023-04-01T00:01:14;9.56;84.89
68128;SHT30;54931;52.098;21.006;2023-04-01T00:03:43;9.56;84.83
68128;SHT30;54931;52.098;21.006;2023-04-01T00:06:15;9.54;84.77
68128;SHT30;54931;52.098;21.006;2023-04-01T00:08:45;9.51;84.71
68128;SHT30;54931;52.098;21.006;2023-04-01T00:11:13;9.47;84.65
68128;SHT30;54931;52.098;21.006;2023-04-01T00:13:42;9.43;84.61
68128;SHT30;54931;52.098;21.006;2023-04-01T00:16:14;9.37;84.60
68128;SHT30;54931;52.098;21.006;2023-04-01T00:18:42;9.34;84.60
68128;SHT30;54931;52.098;21.006;2023-04-01T00:21:10;9.28;84.57
68128;SHT30;54931;52.098;21.006;2023-04-01T00:23:37;9.22;84.62
68128;SHT30;54931;52.098;21.006;2023-04-01T00:26:04;9.18;84.74
68128;SHT30;54931;52.098;21.006;2023-04-01T00:28:33;9.15;84.89
68128;SHT30;54931;52.098;21.006;2023-04-01T00:31:09;9.12;84.99
68128;SHT30;54931;52.098;21.006;2023-04-01T00:33:38;9.11;85.07
68128;SHT30;54931;52.098;21.006;2023-04-01T00:38:41;9.06;85.15
68128;SHT30;54931;52.098;21.006;2023-04-01T00:41:10;9.04;85.11
68128;SHT30;54931;52.098;21.006;2023-04-01T00:43:43;8.99;85.10
68128;SHT30;54931;52.098;21.006;2023-04-01T00:46:13;8.97;85.08
68128;SHT30;54931;52.098;21.006;2023-04-01T00:48:44;8.93;85.06
68128;SHT30;54931;52.098;21.006;2023-04-01T00:51:25;8.86;85.04
68128;SHT30;54931;52.098;21.006;2023-04-01T00:53:58;8.81;85.04
68128;SHT30;54931;52.098;21.006;2023-04-01T00:56:32;8.75;85.12
68128;SHT30;54931;52.098;21.006;2023-04-01T00:59:13;8.70;85.11
68128;SHT30;54931;52.098;21.006;2023-04-01T01:01:47;8.65;85.10
68128;SHT30;54931;52.098;21.006;2023-04-01T01:04:22;8.61;85.14
68128;SHT30;54931;52.098;21.006;2023-04-01T01:07:20;8.57;85.35
68128;SHT30;54931;52.098;21.006;2023-04-01T01:13:04;8.59;85.66
68128;SHT30;54931;52.098;21.006;2023-04-01T01:15:49;8.59;85.68
68128;SHT30;54931;52.098;21.006;2023-04-01T01:18:35;8.59;85.70
68128;SHT30;54931;52.098;21.006;2023-04-01T01:27:16;8.57;85.70
68128;SHT30;54931;52.098;21.006;2023-04-01T01:35:31;8.54;85.94
68128;SHT30;54931;52.098;21.006;2023-04-01T01:38:09;8.56;86.01
68128;SHT30;54931;52.098;21.006;2023-04-01T01:40:43;8.57;86.04
68128;SHT30;54931;52.098;21.006;2023-04-01T01:43:15;8.62;86.09
68128;SHT30;54931;52.098;21.006;2023-04-01T01:45:52;8.65;86.06
68128;SHT30;54931;52.098;21.006;2023-04-01T01:48:25;8.68;86.01
68128;SHT30;54931;52.098;21.006;2023-04-01T01:50:56;8.71;86.09
68128;SHT30;54931;52.098;21.006;2023-04-01T01:53:24;8.72;86.00
68128;SHT30;54931;52.098;21.006;2023-04-01T01:55:52;8.75;85.99
68128;SHT30;54931;52.098;21.006;2023-04-01T01:58:33;8.78;85.90
68128;SHT30;54931;52.098;21.006;2023-04-01T02:01:11;8.79;85.85
68128;SHT30;54931;52.098;21.006;2023-04-01T02:03:46;8.81;85.82
68128;SHT30;54931;52.098;21.006;2023-04-01T02:06:17;8.83;85.80
68128;SHT30;54931;52.098;21.006;2023-04-01T02:08:50;8.84;85.75
68128;SHT30;54931;52.098;21.006;2023-04-01T02:11:26;8.85;85.70
68128;SHT30;54931;52.098;21.006;2023-04-01T02:14:01;8.85;85.65
68128;SHT30;54931;52.098;21.006;2023-04-01T02:16:39;8.85;85.61
68128;SHT30;54931;52.098;21.006;2023-04-01T02:19:32;8.84;85.55
68128;SHT30;54931;52.098;21.006;2023-04-01T02:22:09;8.82;85.50
68128;SHT30;54931;52.098;21.006;2023-04-01T02:24:41;8.79;85.45
68128;SHT30;54931;52.098;21.006;2023-04-01T02:27:10;8.78;85.45
68128;SHT30;54931;52.098;21.006;2023-04-01T02:29:38;8.75;85.41
68128;SHT30;54931;52.098;21.006;2023-04-01T02:32:07;8.71;85.35
68128;SHT30;54931;52.098;21.006;2023-04-01T02:34:37;8.65;85.32
68128;SHT30;54931;52.098;21.006;2023-04-01T02:37:06;8.59;85.30
68128;SHT30;54931;52.098;21.006;2023-04-01T02:39:34;8.51;85.33
68128;SHT30;54931;52.098;21.006;2023-04-01T02:42:02;8.43;85.32
68128;SHT30;54931;52.098;21.006;2023-04-01T02:44:30;8.37;85.33
68128;SHT30;54931;52.098;21.006;2023-04-01T02:46:58;8.30;85.48
68128;SHT30;54931;52.098;21.006;2023-04-01T02:49:26;8.23;85.48
68128;SHT30;54931;52.098;21.006;2023-04-01T02:51:53;8.17;85.50
68128;SHT30;54931;52.098;21.006;2023-04-01T02:54:21;8.11;85.51
68128;SHT30;54931;52.098;21.006;2023-04-01T02:56:48;8.05;85.51
68128;SHT30;54931;52.098;21.006;2023-04-01T02:59:16;7.99;85.59
68128;SHT30;54931;52.098;21.006;2023-04-01T03:01:44;7.93;85.59
68128;SHT30;54931;52.098;21.006;2023-04-01T03:04:11;7.85;85.52
68128;SHT30;54931;52.098;21.006;2023-04-01T03:06:39;7.78;85.62
68128;SHT30;54931;52.098;21.006;2023-04-01T03:09:07;7.74;85.75
68128;SHT30;54931;52.098;21.006;2023-04-01T03:11:35;7.73;85.89
68128;SHT30;54931;52.098;21.006;2023-04-01T03:14:02;7.73;86.04
68128;SHT30;54931;52.098;21.006;2023-04-01T03:16:30;7.75;86.18
68128;SHT30;54931;52.098;21.006;2023-04-01T03:18:58;7.79;86.30
68128;SHT30;54931;52.098;21.006;2023-04-01T03:21:28;7.84;86.39
68128;SHT30;54931;52.098;21.006;2023-04-01T03:23:56;7.88;86.33
68128;SHT30;54931;52.098;21.006;2023-04-01T03:26:24;7.88;86.21
68128;SHT30;54931;52.098;21.006;2023-04-01T03:28:53;7.85;86.01
68128;SHT30;54931;52.098;21.006;2023-04-01T03:31:22;7.81;85.96
68128;SHT30;54931;52.098;21.006;2023-04-01T03:33:51;7.77;86.00
68128;SHT30;54931;52.098;21.006;2023-04-01T03:36:19;7.73;86.06
68128;SHT30;54931;52.098;21.006;2023-04-01T03:38:47;7.72;86.10
68128;SHT30;54931;52.098;21.006;2023-04-01T03:41:15;7.70;86.19
68128;SHT30;54931;52.098;21.006;2023-04-01T03:43:44;7.69;86.31
68128;SHT30;54931;52.098;21.006;2023-04-01T03:46:19;7.73;86.42
68128;SHT30;54931;52.098;21.006;2023-04-01T03:48:47;7.76;86.50
68128;SHT30;54931;52.098;21.006;2023-04-01T03:51:15;7.80;86.58
68128;SHT30;54931;52.098;21.006;2023-04-01T03:53:42;7.84;86.61
68128;SHT30;54931;52.098;21.006;2023-04-01T03:56:10;7.87;86.56
68128;SHT30;54931;52.098;21.006;2023-04-01T03:58:38;7.90;86.52
68128;SHT30;54931;52.098;21.006;2023-04-01T04:01:13;7.93;86.60
68128;SHT30;54931;52.098;21.006;2023-04-01T04:03:43;7.96;86.60
68128;SHT30;54931;52.098;21.006;2023-04-01T04:06:11;7.99;86.58
68128;SHT30;54931;52.098;21.006;2023-04-01T04:08:44;8.02;86.59
68128;SHT30;54931;52.098;21.006;2023-04-01T04:11:13;8.06;86.53
68128;SHT30;54931;52.098;21.006;2023-04-01T04:13:42;8.09;86.50
68128;SHT30;54931;52.098;21.006;2023-04-01T04:16:10;8.11;86.43
68128;SHT30;54931;52.098;21.006;2023-04-01T04:18:38;8.12;86.41
68128;SHT30;54931;52.098;21.006;2023-04-01T04:21:06;8.14;86.40
68128;SHT30;54931;52.098;21.006;2023-04-01T04:23:34;8.16;86.40
68128;SHT30;54931;52.098;21.006;2023-04-01T04:26:05;8.17;86.37
68128;SHT30;54931;52.098;21.006;2023-04-01T04:28:36;8.19;86.39
68128;SHT30;54931;52.098;21.006;2023-04-01T04:31:04;8.22;86.33
68128;SHT30;54931;52.098;21.006;2023-04-01T04:33:33;8.24;86.30
68128;SHT30;54931;52.098;21.006;2023-04-01T04:36:02;8.28;86.31
68128;SHT30;54931;52.098;21.006;2023-04-01T04:38:31;8.30;86.30
68128;SHT30;54931;52.098;21.006;2023-04-01T04:40:58;8.32;86.30
68128;SHT30;54931;52.098;21.006;2023-04-01T04:43:26;8.33;86.28
68128;SHT30;54931;52.098;21.006;2023-04-01T04:45:54;8.38;86.23
68128;SHT30;54931;52.098;21.006;2023-04-01T04:48:22;8.40;86.22
68128;SHT30;54931;52.098;21.006;2023-04-01T04:50:50;8.44;86.22
68128;SHT30;54931;52.098;21.006;2023-04-01T04:53:18;8.49;86.27
68128;SHT30;54931;52.098;21.006;2023-04-01T04:55:46;8.55;86.30
68128;SHT30;54931;52.098;21.006;2023-04-01T04:58:17;8.63;86.31
68128;SHT30;54931;52.098;21.006;2023-04-01T05:00:46;8.70;86.31
68128;SHT30;54931;52.098;21.006;2023-04-01T05:03:14;8.78;86.33
68128;SHT30;54931;52.098;21.006;2023-04-01T05:05:47;8.88;86.30
68128;SHT30;54931;52.098;21.006;2023-04-01T05:08:18;8.98;86.31
68128;SHT30;54931;52.098;21.006;2023-04-01T05:10:46;9.11;86.29
68128;SHT30;54931;52.098;21.006;2023-04-01T05:13:13;9.38;86.44
68128;SHT30;54931;52.098;21.006;2023-04-01T05:15:41;9.46;86.09
68128;SHT30;54931;52.098;21.006;2023-04-01T05:18:09;9.47;85.82
68128;SHT30;54931;52.098;21.006;2023-04-01T05:20:37;9.51;85.73
68128;SHT30;54931;52.098;21.006;2023-04-01T05:23:05;9.52;85.54
68128;SHT30;54931;52.098;21.006;2023-04-01T05:25:33;9.56;85.51
68128;SHT30;54931;52.098;21.006;2023-04-01T05:28:00;9.60;85.45
68128;SHT30;54931;52.098;21.006;2023-04-01T05:30:27;9.64;85.31
68128;SHT30;54931;52.098;21.006;2023-04-01T05:32:55;9.65;85.13
68128;SHT30;54931;52.098;21.006;2023-04-01T05:35:22;9.67;85.05
68128;SHT30;54931;52.098;21.006;2023-04-01T05:37:51;9.69;85.02
68128;SHT30;54931;52.098;21.006;2023-04-01T05:40:18;9.70;85.00
68128;SHT30;54931;52.098;21.006;2023-04-01T05:42:46;9.72;84.95
68128;SHT30;54931;52.098;21.006;2023-04-01T05:45:14;9.72;84.85
68128;SHT30;54931;52.098;21.006;2023-04-01T05:47:42;9.71;84.80
68128;SHT30;54931;52.098;21.006;2023-04-01T05:50:10;9.71;84.80
68128;SHT30;54931;52.098;21.006;2023-04-01T05:52:38;9.73;84.81
68128;SHT30;54931;52.098;21.006;2023-04-01T05:55:06;9.78;84.91
68128;SHT30;54931;52.098;21.006;2023-04-01T05:57:34;9.84;84.88
68128;SHT30;54931;52.098;21.006;2023-04-01T06:00:03;9.90;84.90
68128;SHT30;54931;52.098;21.006;2023-04-01T06:02:33;9.97;84.87
68128;SHT30;54931;52.098;21.006;2023-04-01T06:05:11;10.06;84.93
68128;SHT30;54931;52.098;21.006;2023-04-01T06:07:46;10.15;84.72
68128;SHT30;54931;52.098;21.006;2023-04-01T06:10:16;10.24;84.60
68128;SHT30;54931;52.098;21.006;2023-04-01T06:12:59;10.29;84.35
68128;SHT30;54931;52.098;21.006;2023-04-01T06:19:19;10.42;83.96
68128;SHT30;54931;52.098;21.006;2023-04-01T06:25:25;10.51;83.39
68128;SHT30;54931;52.098;21.006;2023-04-01T06:28:42;10.49;83.33
68128;SHT30;54931;52.098;21.006;2023-04-01T06:34:14;10.55;82.98
68128;SHT30;54931;52.098;21.006;2023-04-01T06:50:37;10.73;81.78
68128;SHT30;54931;52.098;21.006;2023-04-01T06:56:10;10.86;81.28
68128;SHT30;54931;52.098;21.006;2023-04-01T06:58:52;10.93;80.91
68128;SHT30;54931;52.098;21.006;2023-04-01T07:01:34;10.97;81.05
68128;SHT30;54931;52.098;21.006;2023-04-01T07:04:19;11.05;81.04
68128;SHT30;54931;52.098;21.006;2023-04-01T07:06:54;11.08;80.40
68128;SHT30;54931;52.098;21.006;2023-04-01T07:09:36;11.08;80.12
68128;SHT30;54931;52.098;21.006;2023-04-01T07:12:15;11.09;79.97
68128;SHT30;54931;52.098;21.006;2023-04-01T07:14:55;11.05;79.70
68128;SHT30;54931;52.098;21.006;2023-04-01T07:17:27;11.04;79.27
68128;SHT30;54931;52.098;21.006;2023-04-01T07:20:02;11.02;78.85
68128;SHT30;54931;52.098;21.006;2023-04-01T07:22:45;11.13;79.00
68128;SHT30;54931;52.098;21.006;2023-04-01T07:27:58;11.25;78.67
68128;SHT30;54931;52.098;21.006;2023-04-01T07:33:58;11.25;78.35
68128;SHT30;54931;52.098;21.006;2023-04-01T07:41:42;11.67;77.57
68128;SHT30;54931;52.098;21.006;2023-04-01T07:50:29;12.22;76.40
68128;SHT30;54931;52.098;21.006;2023-04-01T07:53:38;12.20;75.52
68128;SHT30;54931;52.098;21.006;2023-04-01T07:56:37;12.06;75.37
68128;SHT30;54931;52.098;21.006;2023-04-01T08:05:03;11.70;75.08
68128;SHT30;54931;52.098;21.006;2023-04-01T08:16:23;11.36;76.25
68128;SHT30;54931;52.098;21.006;2023-04-01T08:22:51;11.27;76.16
68128;SHT30;54931;52.098;21.006;2023-04-01T08:25:32;11.20;76.42
68128;SHT30;54931;52.098;21.006;2023-04-01T08:28:27;11.17;76.70
68128;SHT30;54931;52.098;21.006;2023-04-01T08:34:23;11.19;77.08
68128;SHT30;54931;52.098;21.006;2023-04-01T08:37:04;11.23;76.94
68128;SHT30;54931;52.098;21.006;2023-04-01T08:39:44;11.30;76.93
68128;SHT30;54931;52.098;21.006;2023-04-01T08:45:44;11.47;76.68
68128;SHT30;54931;52.098;21.006;2023-04-01T08:52:13;11.55;76.91
68128;SHT30;54931;52.098;21.006;2023-04-01T09:03:37;11.44;76.67
68128;SHT30;54931;52.098;21.006;2023-04-01T09:06:29;11.45;76.76
68128;SHT30;54931;52.098;21.006;2023-04-01T09:21:36;11.85;75.99
68128;SHT30;54931;52.098;21.006;2023-04-01T09:24:37;11.83;75.18
68128;SHT30;54931;52.098;21.006;2023-04-01T09:27:30;11.86;75.24
68128;SHT30;54931;52.098;21.006;2023-04-01T09:36:23;11.70;73.85
68128;SHT30;54931;52.098;21.006;2023-04-01T09:45:37;11.39;74.66
68128;SHT30;54931;52.098;21.006;2023-04-01T09:48:30;11.15;75.40
68128;SHT30;54931;52.098;21.006;2023-04-01T09:52:00;10.84;76.66
68128;SHT30;54931;52.098;21.006;2023-04-01T10:00:32;10.34;78.67
68128;SHT30;54931;52.098;21.006;2023-04-01T10:06:35;10.27;79.33
68128;SHT30;54931;52.098;21.006;2023-04-01T10:12:56;10.31;79.48
68128;SHT30;54931;52.098;21.006;2023-04-01T10:31:41;10.16;79.75
68128;SHT30;54931;52.098;21.006;2023-04-01T10:37:43;10.22;80.03
68128;SHT30;54931;52.098;21.006;2023-04-01T10:41:31;10.31;79.96
68128;SHT30;54931;52.098;21.006;2023-04-01T10:47:53;10.42;80.10
68128;SHT30;54931;52.098;21.006;2023-04-01T10:53:30;10.62;80.12
68128;SHT30;54931;52.098;21.006;2023-04-01T10:56:09;10.79;79.96
68128;SHT30;54931;52.098;21.006;2023-04-01T11:18:07;11.20;78.10
68128;SHT30;54931;52.098;21.006;2023-04-01T11:20:55;11.19;77.26
68128;SHT30;54931;52.098;21.006;2023-04-01T11:33:49;11.15;76.73
68128;SHT30;54931;52.098;21.006;2023-04-01T11:37:19;11.07;76.28
68128;SHT30;54931;52.098;21.006;2023-04-01T11:43:02;11.10;76.71
68128;SHT30;54931;52.098;21.006;2023-04-01T11:48:44;11.35;76.50
68128;SHT30;54931;52.098;21.006;2023-04-01T12:06:20;11.75;75.42
68128;SHT30;54931;52.098;21.006;2023-04-01T12:17:54;11.80;76.52
68128;SHT30;54931;52.098;21.006;2023-04-01T12:20:57;11.81;75.60
68128;SHT30;54931;52.098;21.006;2023-04-01T12:29:19;11.61;75.35
68128;SHT30;54931;52.098;21.006;2023-04-01T12:32:20;11.65;75.93
68128;SHT30;54931;52.098;21.006;2023-04-01T12:37:54;11.91;76.44
68128;SHT30;54931;52.098;21.006;2023-04-01T12:40:45;12.03;75.90
68128;SHT30;54931;52.098;21.006;2023-04-01T12:58:23;12.71;74.11
68128;SHT30;54931;52.098;21.006;2023-04-01T13:01:42;12.90;73.19
68128;SHT30;54931;52.098;21.006;2023-04-01T13:11:28;13.37;72.30
68128;SHT30;54931;52.098;21.006;2023-04-01T13:13:37;13.44;71.19
68128;SHT30;54931;52.098;21.006;2023-04-01T13:16:46;13.43;70.68
68128;SHT30;54931;52.098;21.006;2023-04-01T13:29:09;13.44;70.16
68128;SHT30;54931;52.098;21.006;2023-04-01T13:31:49;13.51;69.86
68128;SHT30;54931;52.098;21.006;2023-04-01T13:37:22;13.58;68.51
68128;SHT30;54931;52.098;21.006;2023-04-01T13:43:10;13.72;68.55
68128;SHT30;54931;52.098;21.006;2023-04-01T13:46:06;13.87;67.61
68128;SHT30;54931;52.098;21.006;2023-04-01T13:54:56;13.91;67.63
68128;SHT30;54931;52.098;21.006;2023-04-01T13:57:56;13.77;67.94
68128;SHT30;54931;52.098;21.006;2023-04-01T14:01:00;13.62;67.74
68128;SHT30;54931;52.098;21.006;2023-04-01T14:06:53;13.12;68.47
68128;SHT30;54931;52.098;21.006;2023-04-01T14:30:29;11.45;76.25
68128;SHT30;54931;52.098;21.006;2023-04-01T14:36:27;11.23;76.70
68128;SHT30;54931;52.098;21.006;2023-04-01T14:48:07;10.90;77.76
68128;SHT30;54931;52.098;21.006;2023-04-01T14:51:18;10.80;78.06
68128;SHT30;54931;52.098;21.006;2023-04-01T14:54:17;10.78;78.40
68128;SHT30;54931;52.098;21.006;2023-04-01T14:57:11;10.76;78.72
68128;SHT30;54931;52.098;21.006;2023-04-01T14:59:49;10.73;78.80
68128;SHT30;54931;52.098;21.006;2023-04-01T15:02:48;10.67;78.94
68128;SHT30;54931;52.098;21.006;2023-04-01T15:05:49;10.60;79.13
68128;SHT30;54931;52.098;21.006;2023-04-01T15:08:33;10.54;79.23
68128;SHT30;54931;52.098;21.006;2023-04-01T15:11:34;10.47;79.42
68128;SHT30;54931;52.098;21.006;2023-04-01T15:32:38;10.17;79.43
68128;SHT30;54931;52.098;21.006;2023-04-01T15:50:03;9.87;79.43
68128;SHT30;54931;52.098;21.006;2023-04-01T15:53:03;9.82;79.60
68128;SHT30;54931;52.098;21.006;2023-04-01T16:02:43;9.67;79.40
68128;SHT30;54931;52.098;21.006;2023-04-01T16:05:42;9.63;79.47
68128;SHT30;54931;52.098;21.006;2023-04-01T16:14:35;9.59;79.92
68128;SHT30;54931;52.098;21.006;2023-04-01T16:20:24;9.55;80.08
68128;SHT30;54931;52.098;21.006;2023-04-01T16:23:30;9.52;80.16
68128;SHT30;54931;52.098;21.006;2023-04-01T16:26:05;9.51;80.13
68128;SHT30;54931;52.098;21.006;2023-04-01T16:38:01;9.44;80.15
68128;SHT30;54931;52.098;21.006;2023-04-01T16:40:47;9.43;80.15
68128;SHT30;54931;52.098;21.006;2023-04-01T16:46:28;9.40;80.13
68128;SHT30;54931;52.098;21.006;2023-04-01T16:49:36;9.40;80.04
68128;SHT30;54931;52.098;21.006;2023-04-01T16:54:59;9.38;80.04
68128;SHT30;54931;52.098;21.006;2023-04-01T17:08:35;9.24;80.85
68128;SHT30;54931;52.098;21.006;2023-04-01T17:18:09;9.13;80.79
68128;SHT30;54931;52.098;21.006;2023-04-01T17:21:38;9.08;80.57
68128;SHT30;54931;52.098;21.006;2023-04-01T17:28:29;8.97;80.07
68128;SHT30;54931;52.098;21.006;2023-04-01T17:35:02;8.92;79.91
68128;SHT30;54931;52.098;21.006;2023-04-01T17:44:03;8.89;80.00
68128;SHT30;54931;52.098;21.006;2023-04-01T17:55:41;8.92;79.97
68128;SHT30;54931;52.098;21.006;2023-04-01T17:58:46;8.93;79.90
68128;SHT30;54931;52.098;21.006;2023-04-01T18:04:42;8.96;79.60
68128;SHT30;54931;52.098;21.006;2023-04-01T18:10:29;8.96;79.40
68128;SHT30;54931;52.098;21.006;2023-04-01T18:22:34;8.98;79.29
68128;SHT30;54931;52.098;21.006;2023-04-01T18:28:16;8.98;79.30
68128;SHT30;54931;52.098;21.006;2023-04-01T18:30:59;8.98;79.37
68128;SHT30;54931;52.098;21.006;2023-04-01T18:33:59;8.98;79.53
68128;SHT30;54931;52.098;21.006;2023-04-01T18:36:47;8.98;79.66
68128;SHT30;54931;52.098;21.006;2023-04-01T18:39:33;8.96;79.70
68128;SHT30;54931;52.098;21.006;2023-04-01T18:53:34;8.85;79.47
68128;SHT30;54931;52.098;21.006;2023-04-01T18:57:03;8.82;79.50
68128;SHT30;54931;52.098;21.006;2023-04-01T18:59:42;8.79;79.50
68128;SHT30;54931;52.098;21.006;2023-04-01T19:02:43;8.76;79.54
68128;SHT30;54931;52.098;21.006;2023-04-01T19:25:26;8.56;79.69
68128;SHT30;54931;52.098;21.006;2023-04-01T19:28:20;8.54;79.70
68128;SHT30;54931;52.098;21.006;2023-04-01T19:37:40;8.48;79.81
68128;SHT30;54931;52.098;21.006;2023-04-01T19:49:37;8.41;79.92
68128;SHT30;54931;52.098;21.006;2023-04-01T19:52:36;8.40;79.96
68128;SHT30;54931;52.098;21.006;2023-04-01T20:00:59;8.38;80.00
68128;SHT30;54931;52.098;21.006;2023-04-01T20:06:34;8.36;80.01
68128;SHT30;54931;52.098;21.006;2023-04-01T20:15:41;8.31;80.07
68128;SHT30;54931;52.098;21.006;2023-04-01T20:18:32;8.30;80.10
68128;SHT30;54931;52.098;21.006;2023-04-01T20:23:50;8.27;80.10
68128;SHT30;54931;52.098;21.006;2023-04-01T20:26:30;8.26;80.10
68128;SHT30;54931;52.098;21.006;2023-04-01T20:35:37;8.22;80.16
68128;SHT30;54931;52.098;21.006;2023-04-01T20:41:34;8.16;80.25
68128;SHT30;54931;52.098;21.006;2023-04-01T20:44:13;8.12;80.30
68128;SHT30;54931;52.098;21.006;2023-04-01T20:50:28;8.08;80.46
68128;SHT30;54931;52.098;21.006;2023-04-01T20:53:07;8.07;80.54
68128;SHT30;54931;52.098;21.006;2023-04-01T21:02:53;8.02;80.74
68128;SHT30;54931;52.098;21.006;2023-04-01T21:11:54;7.95;81.00
68128;SHT30;54931;52.098;21.006;2023-04-01T21:14:51;7.93;81.05
68128;SHT30;54931;52.098;21.006;2023-04-01T21:32:05;7.77;81.36
68128;SHT30;54931;52.098;21.006;2023-04-01T21:35:17;7.72;81.45
68128;SHT30;54931;52.098;21.006;2023-04-01T21:49:56;7.57;81.81
68128;SHT30;54931;52.098;21.006;2023-04-01T21:56:45;7.53;81.80
68128;SHT30;54931;52.098;21.006;2023-04-01T22:03:03;7.52;81.77
68128;SHT30;54931;52.098;21.006;2023-04-01T22:08:57;7.52;81.65
68128;SHT30;54931;52.098;21.006;2023-04-01T22:11:58;7.53;81.60
68128;SHT30;54931;52.098;21.006;2023-04-01T22:15:20;7.53;81.53
68128;SHT30;54931;52.098;21.006;2023-04-01T22:18:19;7.52;81.43
68128;SHT30;54931;52.098;21.006;2023-04-01T22:20:56;7.51;81.37
68128;SHT30;54931;52.098;21.006;2023-04-01T22:24:04;7.52;81.25
68128;SHT30;54931;52.098;21.006;2023-04-01T22:26:57;7.50;81.20
68128;SHT30;54931;52.098;21.006;2023-04-01T22:30:00;7.49;81.12
68128;SHT30;54931;52.098;21.006;2023-04-01T22:32:45;7.47;81.02
68128;SHT30;54931;52.098;21.006;2023-04-01T22:35:24;7.47;81.00
68128;SHT30;54931;52.098;21.006;2023-04-01T22:40:59;7.45;80.86
68128;SHT30;54931;52.098;21.006;2023-04-01T22:43:39;7.45;80.80
68128;SHT30;54931;52.098;21.006;2023-04-01T22:46:19;7.43;80.75
68128;SHT30;54931;52.098;21.006;2023-04-01T22:51:55;7.43;80.54
68128;SHT30;54931;52.098;21.006;2023-04-01T22:54:56;7.42;80.50
68128;SHT30;54931;52.098;21.006;2023-04-01T22:57:35;7.43;80.34
68128;SHT30;54931;52.098;21.006;2023-04-01T23:03:20;7.41;80.02
68128;SHT30;54931;52.098;21.006;2023-04-01T23:05:59;7.39;79.83
68128;SHT30;54931;52.098;21.006;2023-04-01T23:20:21;7.35;79.72
68128;SHT30;54931;52.098;21.006;2023-04-01T23:28:43;7.28;79.82
68128;SHT30;54931;52.098;21.006;2023-04-01T23:31:30;7.25;79.80
68128;SHT30;54931;52.098;21.006;2023-04-01T23:37:12;7.21;79.90
68128;SHT30;54931;52.098;21.006;2023-04-01T23:39:43;7.20;79.90
68128;SHT30;54931;52.098;21.006;2023-04-01T23:45:18;7.18;79.84
68128;SHT30;54931;52.098;21.006;2023-04-01T23:47:48;7.17;79.57
68128;SHT30;54931;52.098;21.006;2023-04-01T23:50:18;7.14;79.39
68128;SHT30;54931;52.098;21.006;2023-04-01T23:52:53;7.12;79.30
68128;SHT30;54931;52.098;21.006;2023-04-01T23:55:33;7.09;79.27
68128;SHT30;54931;52.098;21.006;2023-04-01T23:58:06;7.07;79.13
